createdAt,value
2022-08-11T00:00:03.218Z,0
2022-08-11T00:05:03.134Z,0
2022-08-11T00:10:02.748Z,0
2022-08-11T00:15:03.469Z,0
2022-08-11T00:20:17.367Z,0
2022-08-11T00:25:03.361Z,0
2022-08-11T00:30:02.811Z,0
2022-08-11T00:35:58.018Z,0
2022-08-11T00:40:03.103Z,0
2022-08-11T00:45:02.761Z,0
2022-08-11T00:50:03.491Z,0
2022-08-11T00:55:03.938Z,0
2022-08-11T01:00:04.173Z,0
2022-08-11T01:05:02.482Z,0
2022-08-11T01:10:07.834Z,0
2022-08-11T01:15:02.988Z,0
2022-08-11T01:20:49.863Z,0
2022-08-11T01:25:02.537Z,0
2022-08-11T01:30:03.237Z,0
2022-08-11T01:35:02.725Z,0
2022-08-11T01:40:02.365Z,0
2022-08-11T01:45:03.404Z,0
2022-08-11T01:50:11.043Z,0
2022-08-11T01:55:03.815Z,0
2022-08-11T02:00:03.396Z,0
2022-08-11T02:05:03.081Z,0
2022-08-11T02:10:02.860Z,0
2022-08-11T02:15:05.878Z,0
2022-08-11T02:20:02.994Z,0
2022-08-11T02:25:02.575Z,0
2022-08-11T02:30:03.060Z,0
2022-08-11T02:35:02.952Z,0
2022-08-11T02:40:03.646Z,0
2022-08-11T02:45:03.026Z,0
2022-08-11T02:50:08.326Z,0
2022-08-11T02:55:04.068Z,0
2022-08-11T03:00:03.381Z,0.11
2022-08-11T03:05:03.167Z,0.57
2022-08-11T03:10:02.944Z,1.25
2022-08-11T03:15:02.776Z,2.94
2022-08-11T03:20:02.593Z,6.56
2022-08-11T03:25:03.219Z,5
2022-08-11T03:30:02.766Z,13.33
2022-08-11T03:35:03.337Z,28.33
2022-08-11T03:40:03.831Z,51.67
2022-08-11T03:45:03.037Z,85
2022-08-11T03:50:02.592Z,130
2022-08-11T03:55:04.436Z,191.67
2022-08-11T04:00:03.055Z,256.67
2022-08-11T04:05:02.579Z,340
2022-08-11T04:10:03.336Z,426.67
2022-08-11T04:15:03.102Z,523.33
2022-08-11T04:20:02.821Z,621.67
2022-08-11T04:25:02.709Z,716.67
2022-08-11T04:30:12.481Z,813.33
2022-08-11T04:35:02.888Z,996.67
2022-08-11T04:40:02.881Z,1076.67
2022-08-11T04:45:03.417Z,1161.67
2022-08-11T04:50:02.754Z,1276.67
2022-08-11T04:55:04.391Z,1381.67
2022-08-11T05:00:02.855Z,1786.67
2022-08-11T05:05:02.780Z,2648.33
2022-08-11T05:10:03.393Z,2546.67
2022-08-11T05:15:03.059Z,3335
2022-08-11T05:20:02.753Z,3420
2022-08-11T05:25:03.281Z,3473.33
2022-08-11T05:30:02.889Z,3783.33
2022-08-11T05:35:02.471Z,4286.67
2022-08-11T05:40:03.620Z,5183.33
2022-08-11T05:45:03.641Z,5636.67
2022-08-11T05:50:02.949Z,5681.67
2022-08-11T05:55:07.639Z,5793.33
2022-08-11T06:00:03.565Z,6071.67
2022-08-11T06:05:02.590Z,6341.67
2022-08-11T06:10:02.402Z,8030
2022-08-11T06:15:03.214Z,7655
2022-08-11T06:20:07.788Z,5001.67
2022-08-11T06:25:02.673Z,5830
2022-08-11T06:30:03.556Z,9678.33
2022-08-11T06:35:02.955Z,8560
2022-08-11T06:40:02.679Z,9183.33
2022-08-11T06:45:04.115Z,9421.67
2022-08-11T06:50:03.001Z,10170
2022-08-11T06:55:04.694Z,9898.33
2022-08-11T07:00:03.069Z,9618.33
2022-08-11T07:05:02.513Z,28676.67
2022-08-11T07:10:03.269Z,29993.33
2022-08-11T07:15:02.655Z,28776.67
2022-08-11T07:20:04.658Z,28436.67
2022-08-11T07:25:04.080Z,30423.33
2022-08-11T07:30:02.801Z,30780
2022-08-11T07:35:02.479Z,27876.67
2022-08-11T07:40:02.990Z,30923.33
2022-08-11T07:45:02.650Z,33046.67
2022-08-11T07:50:03.351Z,35710
2022-08-11T07:55:03.656Z,35800
2022-08-11T08:00:05.438Z,38363.33
2022-08-11T08:05:02.493Z,43670
2022-08-11T08:10:03.158Z,62103.59
2022-08-11T08:15:02.687Z,63693.83
2022-08-11T08:20:03.453Z,61413.59
2022-08-11T08:25:03.208Z,43356.67
2022-08-11T08:30:02.969Z,38626.67
2022-08-11T08:35:02.557Z,38196.67
2022-08-11T08:45:03.039Z,43276.67
2022-08-11T08:50:03.224Z,43393.33
2022-08-11T08:55:04.201Z,45966.67
2022-08-11T09:00:04.776Z,43840
2022-08-11T09:05:02.587Z,47810
2022-08-11T09:10:03.429Z,49936.67
2022-08-11T09:15:02.923Z,61697.5
2022-08-11T09:20:03.896Z,59490.94
2022-08-11T09:25:03.366Z,62117.97
2022-08-11T09:30:02.662Z,59480.16
2022-08-11T09:35:03.182Z,49340
2022-08-11T09:40:02.514Z,43346.67
2022-08-11T09:45:03.615Z,33486.67
2022-08-11T09:50:02.998Z,5583.33
2022-08-11T09:55:03.934Z,7858.33
2022-08-11T10:00:14.705Z,6360
2022-08-11T10:05:03.360Z,60171.95
2022-08-11T10:10:02.998Z,67738.59
2022-08-11T10:15:02.682Z,37293.33
2022-08-11T10:20:06.505Z,60723.59
2022-08-11T10:25:02.933Z,71875
2022-08-11T10:30:04.438Z,72200.23
2022-08-11T10:35:03.206Z,7078.33
2022-08-11T10:40:02.858Z,6771.67
2022-08-11T10:45:04.428Z,68042.27
2022-08-11T10:50:05.863Z,68308.2
2022-08-11T10:55:03.968Z,5948.33
2022-08-11T11:00:03.226Z,70099.69
2022-08-11T11:05:02.912Z,12420
2022-08-11T11:10:02.589Z,45303.33
2022-08-11T11:15:08.365Z,40683.33
2022-08-11T11:20:02.690Z,70955
2022-08-11T11:25:03.307Z,71857.03
2022-08-11T11:30:02.802Z,68935.31
2022-08-11T11:35:02.362Z,68121.33
2022-08-11T11:40:03.142Z,64058.59
2022-08-11T11:45:02.459Z,67681.09
2022-08-11T11:50:03.045Z,71458.13
2022-08-11T11:55:04.008Z,64773.75
2022-08-11T12:00:02.843Z,69902.03
2022-08-11T12:05:02.330Z,62664.22
2022-08-11T12:10:03.276Z,9325
2022-08-11T12:15:03.238Z,7475
2022-08-11T12:20:03.102Z,70383.59
2022-08-11T12:25:03.179Z,72902.81
2022-08-11T12:30:03.584Z,75213.59
2022-08-11T12:35:03.259Z,75380.7
2022-08-11T12:41:14.894Z,69691.8
2022-08-11T12:45:03.540Z,46996.67
2022-08-11T12:50:03.452Z,48616.67
2022-08-11T12:55:03.324Z,46600
2022-08-11T13:00:03.489Z,44930
2022-08-11T13:05:03.075Z,62038.91
2022-08-11T13:10:02.762Z,63600.39
2022-08-11T13:15:03.480Z,64948.05
2022-08-11T13:20:04.559Z,63251.8
2022-08-11T13:25:02.717Z,46866.67
2022-08-11T13:30:03.375Z,59940.16
2022-08-11T13:35:08.591Z,46086.67
2022-08-11T13:40:02.323Z,44266.67
2022-08-11T13:45:03.122Z,42170
2022-08-11T13:50:02.534Z,37263.33
2022-08-11T13:55:04.394Z,37463.33
2022-08-11T14:00:02.678Z,35970
2022-08-11T14:05:03.502Z,36133.33
2022-08-11T14:10:03.078Z,38060
2022-08-11T14:15:09.214Z,36216.67
2022-08-11T14:20:41.264Z,35276.67
2022-08-11T14:25:02.927Z,36573.33
2022-08-11T14:30:02.825Z,36543.33
2022-08-11T14:35:03.230Z,35316.67
2022-08-11T14:40:05.060Z,39163.33
2022-08-11T14:45:02.954Z,36533.33
2022-08-11T14:50:13.225Z,31013.33
2022-08-11T14:55:04.693Z,29123.33
2022-08-11T15:00:02.828Z,13516.67
2022-08-11T15:05:03.394Z,27786.67
2022-08-11T15:10:13.833Z,13240
2022-08-11T15:15:02.979Z,12630
2022-08-11T15:20:02.647Z,11463.33
2022-08-11T15:25:03.341Z,10731.67
2022-08-11T15:30:02.995Z,11708.33
2022-08-11T15:35:04.355Z,31096.67
2022-08-11T15:40:03.587Z,32016.67
2022-08-11T15:45:05.693Z,28896.67
2022-08-11T15:50:14.473Z,11621.67
2022-08-11T15:55:09.115Z,9438.33
2022-08-11T16:00:02.868Z,3736.67
2022-08-11T16:05:02.564Z,5626.67
2022-08-11T16:10:05.198Z,5673.33
2022-08-11T16:15:02.433Z,6013.33
2022-08-11T16:20:03.015Z,6728.33
2022-08-11T16:27:14.311Z,7640
2022-08-11T16:30:03.512Z,7553.33
2022-08-11T16:35:03.055Z,8256.67
2022-08-11T16:40:02.822Z,6885
2022-08-11T16:45:03.507Z,6193.33
2022-08-11T16:50:03.269Z,5208.33
2022-08-11T16:55:03.818Z,5121.67
2022-08-11T17:00:02.383Z,3783.33
2022-08-11T17:05:03.020Z,3773.33
2022-08-11T17:10:02.612Z,2773.33
2022-08-11T17:15:03.450Z,2155
2022-08-11T17:20:44.590Z,2128.33
2022-08-11T17:25:03.322Z,2036.67
2022-08-11T17:30:02.790Z,1991.67
2022-08-11T17:35:03.056Z,1645
2022-08-11T17:40:02.700Z,1650
2022-08-11T17:45:03.219Z,1396.67
2022-08-11T17:50:18.725Z,988.33
2022-08-11T17:55:07.929Z,916.67
2022-08-11T18:00:02.791Z,820
2022-08-11T18:05:02.682Z,718.33
2022-08-11T18:10:04.018Z,578.33
2022-08-11T18:15:03.112Z,485
2022-08-11T18:20:03.286Z,410
2022-08-11T18:25:03.294Z,338.33
2022-08-11T18:30:02.790Z,275
2022-08-11T18:35:03.468Z,213.33
2022-08-11T18:40:03.125Z,161.67
2022-08-11T18:45:03.200Z,115
2022-08-11T18:50:05.838Z,73.33
2022-08-11T18:55:03.532Z,41.67
2022-08-11T19:00:02.381Z,21.67
2022-08-11T19:05:03.099Z,10
2022-08-11T19:10:02.832Z,11.43
2022-08-11T19:15:03.331Z,5.32
2022-08-11T19:20:02.842Z,2.38
2022-08-11T19:25:03.058Z,0.34
2022-08-11T19:30:14.609Z,0.11
2022-08-11T19:35:03.213Z,0
2022-08-11T19:40:04.653Z,0
2022-08-11T19:45:02.834Z,0
2022-08-11T19:50:02.661Z,0
2022-08-11T19:55:04.311Z,0
2022-08-11T20:00:02.587Z,0
2022-08-11T20:05:03.134Z,0
2022-08-11T20:10:06.701Z,0
2022-08-11T20:15:02.528Z,0
2022-08-11T20:20:03.109Z,0
2022-08-11T20:25:02.531Z,0
2022-08-11T20:30:02.360Z,0
2022-08-11T20:35:02.918Z,0
2022-08-11T20:40:02.567Z,0
2022-08-11T20:45:03.336Z,0
2022-08-11T20:50:03.314Z,0
2022-08-11T20:55:54.139Z,0
2022-08-11T21:00:03.737Z,0
2022-08-11T21:05:03.410Z,0
2022-08-11T21:10:24.331Z,0
2022-08-11T21:15:06.238Z,0
2022-08-11T21:20:21.371Z,0
2022-08-11T21:25:02.725Z,0
2022-08-11T21:30:03.277Z,0
2022-08-11T21:35:02.988Z,0
2022-08-11T21:40:03.223Z,0
2022-08-11T21:45:03.109Z,0
2022-08-11T21:50:02.995Z,0
2022-08-11T21:55:03.394Z,0
2022-08-11T22:00:03.632Z,0
2022-08-11T22:05:02.906Z,0
2022-08-11T22:10:43.342Z,0
2022-08-11T22:15:03.030Z,0
2022-08-11T22:20:02.852Z,0
2022-08-11T22:25:18.864Z,0
2022-08-11T22:30:03.366Z,0
2022-08-11T22:35:02.793Z,0
2022-08-11T22:40:03.830Z,0
2022-08-11T22:45:03.440Z,0
2022-08-11T22:50:02.974Z,0
2022-08-11T22:55:04.017Z,0
2022-08-11T23:00:03.362Z,0
2022-08-11T23:05:02.634Z,0
2022-08-11T23:10:02.428Z,0
2022-08-11T23:15:03.223Z,0
2022-08-11T23:20:24.760Z,0
2022-08-11T23:25:03.297Z,0
2022-08-11T23:30:02.708Z,0
2022-08-11T23:35:59.560Z,0
2022-08-11T23:40:02.961Z,0
2022-08-11T23:45:05.535Z,0
2022-08-11T23:50:02.599Z,0
2022-08-11T23:55:04.033Z,0
